createdAt,value
2023-05-10T00:00:33.040Z,9.48
2023-05-10T00:01:34.981Z,9.42
2023-05-10T00:02:36.453Z,9.36
2023-05-10T00:03:38.017Z,9.47
2023-05-10T00:04:39.482Z,9.39
2023-05-10T00:05:40.953Z,9.31
2023-05-10T00:06:42.361Z,9.26
2023-05-10T00:07:45.858Z,9.32
2023-05-10T00:08:47.407Z,9.36
2023-05-10T00:09:48.796Z,9.32
2023-05-10T00:10:50.391Z,9.20
2023-05-10T00:11:51.798Z,9.10
2023-05-10T00:12:53.255Z,8.95
2023-05-10T00:13:55.232Z,8.97
2023-05-10T00:14:56.547Z,9.06
2023-05-10T00:15:57.969Z,9.21
2023-05-10T00:16:59.553Z,9.21
2023-05-10T00:18:01.259Z,9.17
2023-05-10T00:19:02.806Z,9.08
2023-05-10T00:20:05.807Z,9.13
2023-05-10T00:21:07.470Z,9.09
2023-05-10T00:22:08.933Z,9.16
2023-05-10T00:23:10.365Z,9.15
2023-05-10T00:24:11.790Z,9.22
2023-05-10T00:25:13.181Z,9.45
2023-05-10T00:26:14.741Z,9.41
2023-05-10T00:27:16.173Z,9.38
2023-05-10T00:28:17.576Z,9.41
2023-05-10T00:29:19.012Z,9.39
2023-05-10T00:30:23.361Z,9.38
2023-05-10T00:31:24.814Z,9.27
2023-05-10T00:32:26.276Z,9.30
2023-05-10T00:33:27.911Z,9.39
2023-05-10T00:34:29.335Z,9.45
2023-05-10T00:35:30.795Z,9.50
2023-05-10T00:36:32.477Z,9.49
2023-05-10T00:37:33.952Z,9.51
2023-05-10T00:38:35.623Z,9.45
2023-05-10T00:39:37.062Z,9.33
2023-05-10T00:40:38.731Z,9.33
2023-05-10T00:41:40.156Z,9.29
2023-05-10T00:42:41.620Z,9.19
2023-05-10T00:43:43.130Z,9.21
2023-05-10T00:44:44.531Z,9.09
2023-05-10T00:45:46.099Z,9.19
2023-05-10T00:46:48.845Z,9.20
2023-05-10T00:47:50.431Z,9.15
2023-05-10T00:48:51.969Z,9.33
2023-05-10T00:49:53.462Z,9.32
2023-05-10T00:50:54.928Z,9.34
2023-05-10T00:51:56.715Z,9.41
2023-05-10T00:52:59.952Z,9.44
2023-05-10T00:54:01.494Z,9.48
2023-05-10T00:55:04.320Z,9.45
2023-05-10T00:56:06.425Z,9.32
2023-05-10T00:57:10.847Z,9.40
2023-05-10T00:58:13.207Z,9.35
2023-05-10T00:59:15.008Z,9.45
2023-05-10T01:00:19.769Z,9.27
2023-05-10T01:01:21.472Z,9.33
2023-05-10T01:02:22.962Z,9.39
2023-05-10T01:03:24.560Z,9.36
2023-05-10T01:04:29.348Z,9.36
2023-05-10T01:05:31.109Z,9.41
2023-05-10T01:06:33.220Z,9.33
2023-05-10T01:07:34.649Z,9.28
2023-05-10T01:08:36.188Z,9.24
2023-05-10T01:09:37.848Z,9.20
2023-05-10T01:10:39.350Z,9.13
2023-05-10T01:11:41.129Z,9.13
2023-05-10T01:12:46.034Z,9.09
2023-05-10T01:13:54.908Z,8.99
2023-05-10T01:14:56.392Z,8.91
2023-05-10T01:15:58.623Z,8.91
2023-05-10T01:17:01.780Z,9.06
2023-05-10T01:18:04.179Z,8.99
2023-05-10T01:19:17.994Z,8.80
2023-05-10T01:20:19.844Z,8.93
2023-05-10T01:21:33.314Z,8.91
2023-05-10T01:22:53.081Z,9.01
2023-05-10T01:23:54.444Z,8.90
2023-05-10T01:25:17.759Z,8.91
2023-05-10T01:26:31.331Z,8.94
2023-05-10T01:27:48.681Z,8.93
2023-05-10T01:29:22.373Z,8.87
2023-05-10T01:30:48.572Z,8.87
2023-05-10T01:31:50.053Z,8.93
2023-05-10T01:33:00.509Z,8.97
2023-05-10T01:34:17.974Z,8.95
2023-05-10T01:35:27.760Z,8.95
2023-05-10T01:36:39.130Z,8.91
2023-05-10T01:37:46.254Z,8.94
2023-05-10T01:38:58.846Z,8.85
2023-05-10T01:40:24.235Z,8.86
2023-05-10T01:41:48.785Z,8.81
2023-05-10T01:42:54.358Z,8.78
2023-05-10T01:44:10.704Z,8.68
2023-05-10T01:45:22.316Z,8.53
2023-05-10T01:46:36.074Z,8.44
2023-05-10T01:47:45.539Z,8.34
2023-05-10T01:48:54.891Z,8.36
2023-05-10T01:50:00.793Z,8.27
2023-05-10T01:51:02.921Z,8.38
2023-05-10T01:52:16.834Z,8.33
2023-05-10T01:53:19.727Z,8.34
2023-05-10T01:54:23.343Z,8.33
2023-05-10T01:55:28.401Z,8.35
2023-05-10T01:56:32.983Z,8.26
2023-05-10T01:57:36.799Z,8.24
2023-05-10T01:58:44.850Z,8.21
2023-05-10T01:59:48.511Z,8.39
2023-05-10T02:00:53.296Z,8.46
2023-05-10T02:01:57.761Z,8.54
2023-05-10T02:03:02.344Z,8.59
2023-05-10T02:04:04.328Z,8.60
2023-05-10T02:05:09.350Z,8.60
2023-05-10T02:06:13.717Z,8.53
2023-05-10T02:07:15.516Z,8.48
2023-05-10T02:08:19.017Z,8.52
2023-05-10T02:09:22.598Z,8.56
2023-05-10T02:10:24.239Z,8.47
2023-05-10T02:11:27.161Z,8.49
2023-05-10T02:12:30.736Z,8.64
2023-05-10T02:13:35.126Z,8.44
2023-05-10T02:14:38.261Z,8.41
2023-05-10T02:15:41.076Z,8.43
2023-05-10T02:16:43.998Z,8.50
2023-05-10T02:17:48.171Z,8.35
2023-05-10T02:18:51.265Z,8.40
2023-05-10T02:19:54.113Z,8.42
2023-05-10T02:20:57.545Z,8.44
2023-05-10T02:22:01.815Z,8.36
2023-05-10T02:23:04.575Z,8.38
2023-05-10T02:24:07.166Z,8.39
2023-05-10T02:25:10.107Z,8.48
2023-05-10T02:26:13.010Z,8.36
2023-05-10T02:27:16.581Z,8.28
2023-05-10T02:28:19.036Z,8.30
2023-05-10T02:29:21.540Z,8.33
2023-05-10T02:30:24.225Z,8.29
2023-05-10T02:31:26.958Z,8.26
2023-05-10T02:32:28.755Z,8.20
2023-05-10T02:33:32.495Z,8.21
2023-05-10T02:34:34.318Z,8.15
2023-05-10T02:35:37.101Z,8.21
2023-05-10T02:36:41.015Z,8.14
2023-05-10T02:37:43.436Z,8.19
2023-05-10T02:38:47.041Z,8.16
2023-05-10T02:39:51.644Z,8.16
2023-05-10T02:40:54.617Z,8.19
2023-05-10T02:41:57.933Z,8.23
2023-05-10T02:43:02.434Z,8.22
2023-05-10T02:44:07.669Z,8.22
2023-05-10T02:45:13.355Z,8.11
2023-05-10T02:46:14.858Z,8.04
2023-05-10T02:47:16.384Z,8.02
2023-05-10T02:48:18.357Z,7.96
2023-05-10T02:49:19.717Z,7.88
2023-05-10T02:50:22.474Z,7.80
2023-05-10T02:51:29.124Z,7.92
2023-05-10T02:52:56.173Z,7.84
2023-05-10T02:54:02.899Z,7.81
2023-05-10T02:55:06.834Z,7.87
2023-05-10T02:56:29.470Z,7.87
2023-05-10T02:57:34.919Z,7.92
2023-05-10T02:58:36.482Z,8.00
2023-05-10T02:59:38.066Z,7.93
2023-05-10T03:00:39.545Z,7.84
2023-05-10T03:01:41.068Z,7.78
2023-05-10T03:02:42.562Z,7.83
2023-05-10T03:03:43.943Z,7.90
2023-05-10T03:04:45.414Z,7.82
2023-05-10T03:05:46.894Z,7.81
2023-05-10T03:06:48.874Z,7.69
2023-05-10T03:07:50.770Z,7.76
2023-05-10T03:08:52.281Z,7.68
2023-05-10T03:09:53.833Z,7.71
2023-05-10T03:11:26.098Z,7.76
2023-05-10T03:12:30.611Z,7.84
2023-05-10T03:13:49.906Z,7.88
2023-05-10T03:15:04.646Z,7.88
2023-05-10T03:16:13.194Z,7.79
2023-05-10T03:17:29.350Z,7.80
2023-05-10T03:18:39.865Z,7.71
2023-05-10T03:19:55.980Z,7.67
2023-05-10T03:21:02.712Z,7.67
2023-05-10T03:22:11.555Z,7.77
2023-05-10T03:23:18.574Z,7.76
2023-05-10T03:24:23.310Z,7.73
2023-05-10T03:25:25.455Z,7.69
2023-05-10T03:26:28.390Z,7.68
2023-05-10T03:27:30.916Z,7.65
2023-05-10T03:28:34.037Z,7.55
2023-05-10T03:29:37.091Z,7.61
2023-05-10T03:30:39.320Z,7.58
2023-05-10T03:31:40.990Z,7.53
2023-05-10T03:32:42.600Z,7.57
2023-05-10T03:33:51.492Z,7.54
2023-05-10T03:34:52.917Z,7.54
2023-05-10T03:35:54.339Z,7.50
2023-05-10T03:36:55.803Z,7.63
2023-05-10T03:37:57.218Z,7.55
2023-05-10T03:38:58.702Z,7.49
2023-05-10T03:40:00.166Z,7.42
2023-05-10T03:41:01.607Z,7.43
2023-05-10T03:42:03.051Z,7.47
2023-05-10T03:43:04.519Z,7.58
2023-05-10T03:44:06.064Z,7.66
2023-05-10T03:45:08.561Z,7.65
2023-05-10T03:46:10.047Z,7.64
2023-05-10T03:47:11.477Z,7.57
2023-05-10T03:48:14.639Z,7.49
2023-05-10T03:49:16.204Z,7.47
2023-05-10T03:50:18.274Z,7.62
2023-05-10T03:51:19.998Z,7.67
2023-05-10T03:52:21.606Z,7.58
2023-05-10T03:53:24.001Z,7.52
2023-05-10T03:54:25.420Z,7.48
2023-05-10T03:55:27.054Z,7.49
2023-05-10T03:56:28.496Z,7.55
2023-05-10T03:57:30.130Z,7.63
2023-05-10T03:58:31.596Z,7.65
2023-05-10T03:59:33.025Z,7.69
2023-05-10T04:00:34.511Z,7.59
2023-05-10T04:01:36.126Z,7.63
2023-05-10T04:02:38.441Z,7.69
2023-05-10T04:03:40.281Z,7.71
2023-05-10T04:04:44.657Z,7.65
2023-05-10T04:05:46.060Z,7.64
2023-05-10T04:06:47.426Z,7.57
2023-05-10T04:07:50.243Z,7.63
2023-05-10T04:08:51.686Z,7.56
2023-05-10T04:09:53.343Z,7.70
2023-05-10T04:10:54.755Z,7.71
2023-05-10T04:11:56.246Z,7.73
2023-05-10T04:12:57.696Z,7.71
2023-05-10T04:13:59.148Z,7.77
2023-05-10T04:15:01.194Z,7.83
2023-05-10T04:16:03.165Z,7.93
2023-05-10T04:17:04.537Z,7.90
2023-05-10T04:18:08.564Z,7.92
2023-05-10T04:19:10.356Z,7.84
2023-05-10T04:20:12.402Z,7.92
2023-05-10T04:21:14.633Z,8.00
2023-05-10T04:22:16.890Z,7.91
2023-05-10T04:23:18.376Z,7.89
2023-05-10T04:24:19.822Z,7.97
2023-05-10T04:25:21.304Z,7.99
2023-05-10T04:26:23.036Z,8.02
2023-05-10T04:27:24.448Z,8.15
2023-05-10T04:28:27.188Z,8.14
2023-05-10T04:29:28.762Z,8.20
2023-05-10T04:30:30.533Z,8.14
2023-05-10T04:31:32.001Z,8.31
2023-05-10T04:32:33.496Z,8.34
2023-05-10T04:33:35.348Z,8.38
2023-05-10T04:34:37.696Z,8.40
2023-05-10T04:35:40.852Z,8.48
2023-05-10T04:36:42.233Z,8.35
2023-05-10T04:37:44.135Z,8.38
2023-05-10T04:38:45.566Z,8.45
2023-05-10T04:39:47.058Z,8.49
2023-05-10T04:40:48.600Z,8.48
2023-05-10T04:41:50.005Z,8.44
2023-05-10T04:42:51.428Z,8.54
2023-05-10T04:43:52.859Z,8.65
2023-05-10T04:44:54.293Z,8.63
2023-05-10T04:45:57.865Z,8.76
2023-05-10T04:47:00.121Z,8.98
2023-05-10T04:48:01.554Z,9.23
2023-05-10T04:49:02.983Z,9.54
2023-05-10T04:50:05.277Z,10.00
2023-05-10T04:51:07.421Z,10.32
2023-05-10T04:52:08.826Z,10.71
2023-05-10T04:53:10.225Z,10.85
2023-05-10T04:54:11.631Z,11.07
2023-05-10T04:55:13.108Z,11.17
2023-05-10T04:56:14.519Z,11.33
2023-05-10T04:57:16.008Z,11.38
2023-05-10T04:58:17.635Z,11.37
2023-05-10T04:59:19.082Z,11.28
2023-05-10T05:00:20.857Z,11.26
2023-05-10T05:01:23.973Z,11.27
2023-05-10T05:02:25.722Z,11.22
2023-05-10T05:03:27.268Z,11.28
2023-05-10T05:04:28.719Z,11.36
2023-05-10T05:05:30.168Z,11.36
2023-05-10T05:06:31.577Z,11.35
2023-05-10T05:07:32.978Z,11.50
2023-05-10T05:08:34.417Z,11.49
2023-05-10T05:09:35.900Z,11.66
2023-05-10T05:10:37.436Z,11.77
2023-05-10T05:11:39.172Z,11.87
2023-05-10T05:12:40.579Z,11.68
2023-05-10T05:13:41.974Z,11.85
2023-05-10T05:14:43.364Z,12.04
2023-05-10T05:15:44.778Z,12.14
2023-05-10T05:16:46.187Z,12.20
2023-05-10T05:17:47.896Z,12.25
2023-05-10T05:18:49.397Z,12.22
2023-05-10T05:19:50.785Z,12.35
2023-05-10T05:20:52.195Z,12.41
2023-05-10T05:21:53.590Z,12.47
2023-05-10T05:22:55.254Z,12.34
2023-05-10T05:23:56.704Z,12.38
2023-05-10T05:25:03.332Z,12.47
2023-05-10T05:26:04.929Z,12.26
2023-05-10T05:27:06.941Z,12.46
2023-05-10T05:28:08.479Z,12.39
2023-05-10T05:29:09.865Z,12.52
2023-05-10T05:30:12.047Z,12.56
2023-05-10T05:31:13.550Z,12.60
2023-05-10T05:32:15.019Z,12.50
2023-05-10T05:33:16.497Z,12.40
2023-05-10T05:34:17.908Z,12.33
2023-05-10T05:35:19.472Z,12.32
2023-05-10T05:36:21.070Z,12.39
2023-05-10T05:37:23.415Z,12.46
2023-05-10T05:38:24.874Z,12.50
2023-05-10T05:39:26.278Z,12.50
2023-05-10T05:40:27.702Z,12.55
2023-05-10T05:41:29.106Z,12.56
2023-05-10T05:42:32.234Z,12.66
2023-05-10T05:43:34.603Z,12.65
2023-05-10T05:44:37.720Z,12.70
2023-05-10T05:45:39.391Z,12.74
2023-05-10T05:46:41.087Z,12.75
2023-05-10T05:47:42.591Z,12.86
2023-05-10T05:48:44.047Z,12.80
2023-05-10T05:49:48.044Z,12.74
2023-05-10T05:50:49.481Z,12.80
2023-05-10T05:51:51.314Z,12.98
2023-05-10T05:52:52.822Z,13.10
2023-05-10T05:53:54.471Z,13.07
2023-05-10T05:54:55.897Z,13.01
2023-05-10T05:55:59.547Z,13.06
2023-05-10T05:57:01.786Z,13.07
2023-05-10T05:58:03.883Z,13.06
2023-05-10T05:59:05.309Z,13.06
2023-05-10T06:00:07.523Z,13.07
2023-05-10T06:01:09.527Z,13.13
2023-05-10T06:02:11.574Z,13.07
2023-05-10T06:03:13.188Z,13.07
2023-05-10T06:04:15.048Z,13.01
2023-05-10T06:05:16.856Z,13.03
2023-05-10T06:06:18.281Z,13.04
2023-05-10T06:07:19.780Z,13.13
2023-05-10T06:08:21.437Z,13.14
2023-05-10T06:09:24.652Z,13.23
2023-05-10T06:10:26.446Z,13.25
2023-05-10T06:11:27.910Z,13.22
2023-05-10T06:12:29.449Z,13.29
2023-05-10T06:13:33.302Z,13.24
2023-05-10T06:14:34.952Z,13.29
2023-05-10T06:15:36.414Z,13.33
2023-05-10T06:16:38.041Z,13.40
2023-05-10T06:17:39.850Z,13.43
2023-05-10T06:18:41.358Z,13.46
2023-05-10T06:19:42.755Z,13.52
2023-05-10T06:20:44.214Z,13.62
2023-05-10T06:21:45.632Z,13.48
2023-05-10T06:22:47.215Z,13.55
2023-05-10T06:23:48.695Z,13.62
2023-05-10T06:24:50.676Z,13.58
2023-05-10T06:25:52.678Z,13.51
2023-05-10T06:26:54.096Z,13.54
2023-05-10T06:27:58.915Z,13.57
2023-05-10T06:29:00.344Z,13.52
2023-05-10T06:30:11.627Z,13.65
2023-05-10T06:31:13.678Z,13.70
2023-05-10T06:32:15.153Z,13.69
2023-05-10T06:33:16.998Z,13.62
2023-05-10T06:34:18.437Z,13.57
2023-05-10T06:35:20.069Z,13.66
2023-05-10T06:36:21.765Z,13.57
2023-05-10T06:37:23.247Z,13.66
2023-05-10T06:38:24.871Z,13.75
2023-05-10T06:39:26.253Z,13.77
2023-05-10T06:40:27.745Z,13.73
2023-05-10T06:41:29.156Z,13.82
2023-05-10T06:42:30.560Z,13.81
2023-05-10T06:43:32.550Z,13.77
2023-05-10T06:44:34.188Z,13.90
2023-05-10T06:45:35.730Z,13.89
2023-05-10T06:46:37.385Z,13.90
2023-05-10T06:47:39.457Z,13.89
2023-05-10T06:48:41.361Z,13.84
2023-05-10T06:49:42.792Z,13.89
2023-05-10T06:50:44.941Z,14.04
2023-05-10T06:51:46.422Z,14.08
2023-05-10T06:52:48.219Z,14.14
2023-05-10T06:53:49.663Z,14.22
2023-05-10T06:54:51.316Z,14.36
2023-05-10T06:55:52.978Z,14.33
2023-05-10T06:56:54.877Z,14.36
2023-05-10T06:57:56.310Z,14.43
2023-05-10T06:58:57.797Z,14.33
2023-05-10T06:59:59.959Z,14.32
2023-05-10T07:01:05.272Z,14.34
2023-05-10T07:02:07.015Z,14.24
2023-05-10T07:03:08.509Z,14.50
2023-05-10T07:04:10.105Z,14.44
2023-05-10T07:05:11.569Z,14.50
2023-05-10T07:06:21.666Z,14.50
2023-05-10T07:07:32.585Z,14.53
2023-05-10T07:08:34.773Z,14.55
2023-05-10T07:09:36.385Z,14.61
2023-05-10T07:10:37.796Z,14.57
2023-05-10T07:11:39.214Z,14.62
2023-05-10T07:12:40.692Z,14.65
2023-05-10T07:13:45.020Z,14.65
2023-05-10T07:14:46.683Z,14.61
2023-05-10T07:15:48.106Z,14.57
2023-05-10T07:16:50.346Z,14.61
2023-05-10T07:17:52.833Z,14.64
2023-05-10T07:18:54.591Z,14.45
2023-05-10T07:19:56.094Z,14.59
2023-05-10T07:20:58.168Z,14.62
2023-05-10T07:21:59.573Z,14.62
2023-05-10T07:23:00.975Z,14.72
2023-05-10T07:24:02.410Z,14.76
2023-05-10T07:25:04.209Z,14.77
2023-05-10T07:26:05.715Z,14.89
2023-05-10T07:27:07.271Z,14.85
2023-05-10T07:28:08.688Z,15.00
2023-05-10T07:29:10.935Z,14.94
2023-05-10T07:30:13.107Z,15.07
2023-05-10T07:31:14.553Z,15.10
2023-05-10T07:32:16.052Z,15.11
2023-05-10T07:33:17.773Z,15.17
2023-05-10T07:34:19.291Z,15.26
2023-05-10T07:35:20.864Z,15.27
2023-05-10T07:36:22.306Z,15.15
2023-05-10T07:37:23.761Z,15.14
2023-05-10T07:38:25.226Z,15.17
2023-05-10T07:39:29.829Z,15.18
2023-05-10T07:40:31.447Z,15.06
2023-05-10T07:41:35.050Z,15.21
2023-05-10T07:42:37.226Z,15.28
2023-05-10T07:43:39.005Z,15.26
2023-05-10T07:44:40.394Z,15.29
2023-05-10T07:45:41.877Z,15.23
2023-05-10T07:46:43.285Z,15.28
2023-05-10T07:47:44.761Z,15.29
2023-05-10T07:48:46.432Z,15.32
2023-05-10T07:49:47.820Z,15.16
2023-05-10T07:50:49.240Z,15.16
2023-05-10T07:51:51.002Z,15.20
2023-05-10T07:52:52.544Z,15.29
2023-05-10T07:53:53.923Z,15.28
2023-05-10T07:54:55.627Z,15.38
2023-05-10T07:56:00.058Z,15.37
2023-05-10T07:57:01.525Z,15.30
2023-05-10T07:58:03.352Z,15.46
2023-05-10T07:59:05.916Z,15.51
2023-05-10T08:00:08.500Z,15.74
2023-05-10T08:01:09.906Z,15.81
2023-05-10T08:02:11.368Z,15.79
2023-05-10T08:03:13.016Z,15.83
2023-05-10T08:04:14.627Z,15.81
2023-05-10T08:05:16.434Z,15.79
2023-05-10T08:06:19.448Z,15.79
2023-05-10T08:07:20.847Z,15.81
2023-05-10T08:08:23.698Z,15.86
2023-05-10T08:09:25.474Z,15.90
2023-05-10T08:10:26.990Z,15.90
2023-05-10T08:11:28.828Z,15.81
2023-05-10T08:12:30.272Z,15.90
2023-05-10T08:13:32.359Z,15.85
2023-05-10T08:14:33.881Z,15.93
2023-05-10T08:15:35.409Z,15.84
2023-05-10T08:16:36.859Z,15.84
2023-05-10T08:17:38.323Z,15.84
2023-05-10T08:18:40.626Z,15.88
2023-05-10T08:19:42.048Z,15.94
2023-05-10T08:20:43.487Z,16.02
2023-05-10T08:21:44.905Z,16.07
2023-05-10T08:22:48.526Z,16.06
2023-05-10T08:23:50.929Z,16.08
2023-05-10T08:24:52.371Z,16.08
2023-05-10T08:25:53.863Z,16.08
2023-05-10T08:26:55.315Z,16.10
2023-05-10T08:27:56.788Z,16.23
2023-05-10T08:28:58.189Z,16.17
2023-05-10T08:29:59.596Z,16.16
2023-05-10T08:31:01.239Z,16.16
2023-05-10T08:32:02.735Z,16.19
2023-05-10T08:33:04.346Z,16.32
2023-05-10T08:34:05.971Z,16.30
2023-05-10T08:35:07.617Z,16.41
2023-05-10T08:36:09.193Z,16.43
2023-05-10T08:37:13.992Z,16.52
2023-05-10T08:38:15.691Z,16.49
2023-05-10T08:39:29.365Z,16.53
2023-05-10T08:40:31.691Z,16.61
2023-05-10T08:41:34.419Z,16.70
2023-05-10T08:42:41.117Z,16.78
2023-05-10T08:43:47.121Z,16.79
2023-05-10T08:44:49.732Z,16.73
2023-05-10T08:45:54.351Z,16.79
2023-05-10T08:46:56.550Z,16.64
2023-05-10T08:47:59.103Z,16.70
2023-05-10T08:49:05.070Z,16.64
2023-05-10T08:50:07.595Z,16.59
2023-05-10T08:51:15.747Z,16.71
2023-05-10T08:52:21.392Z,16.82
2023-05-10T08:53:27.497Z,16.76
2023-05-10T08:54:29.076Z,16.75
2023-05-10T08:55:31.049Z,16.83
2023-05-10T08:56:32.613Z,16.87
2023-05-10T08:57:34.215Z,16.86
2023-05-10T08:58:36.314Z,16.84
2023-05-10T08:59:40.320Z,16.91
2023-05-10T09:00:41.941Z,16.91
2023-05-10T09:01:46.437Z,17.02
2023-05-10T09:02:49.958Z,17.01
2023-05-10T09:03:51.687Z,17.09
2023-05-10T09:04:53.282Z,17.29
2023-05-10T09:05:56.828Z,17.39
2023-05-10T09:06:58.756Z,17.36
2023-05-10T09:08:01.510Z,17.29
2023-05-10T09:09:04.305Z,17.31
2023-05-10T09:10:06.726Z,17.29
2023-05-10T09:11:09.520Z,17.23
2023-05-10T09:12:12.509Z,17.28
2023-05-10T09:13:16.176Z,17.33
2023-05-10T09:14:18.571Z,17.44
2023-05-10T09:15:20.879Z,17.42
2023-05-10T09:16:22.810Z,17.58
2023-05-10T09:17:26.162Z,17.71
2023-05-10T09:18:28.185Z,17.73
2023-05-10T09:19:29.759Z,17.71
2023-05-10T09:20:32.049Z,17.64
2023-05-10T09:21:36.422Z,17.69
2023-05-10T09:22:38.668Z,17.82
2023-05-10T09:23:45.632Z,17.77
2023-05-10T09:24:48.823Z,17.84
2023-05-10T09:26:04.201Z,17.80
2023-05-10T09:27:06.196Z,17.79
2023-05-10T09:28:09.574Z,17.81
2023-05-10T09:29:11.022Z,17.89
2023-05-10T09:30:17.694Z,17.94
2023-05-10T09:31:19.505Z,18.06
2023-05-10T09:32:21.004Z,18.09
2023-05-10T09:33:22.516Z,18.06
2023-05-10T09:34:30.677Z,17.96
2023-05-10T09:35:34.388Z,17.98
2023-05-10T09:36:35.802Z,18.06
2023-05-10T09:37:37.297Z,18.16
2023-05-10T09:38:53.509Z,18.23
2023-05-10T09:39:55.692Z,18.43
2023-05-10T09:40:58.679Z,18.42
2023-05-10T09:42:02.382Z,18.41
2023-05-10T09:43:07.728Z,18.34
2023-05-10T09:44:09.112Z,18.51
2023-05-10T09:45:10.941Z,18.48
2023-05-10T09:46:12.539Z,18.49
2023-05-10T09:47:19.713Z,18.58
2023-05-10T09:48:24.880Z,18.70
2023-05-10T09:49:26.389Z,18.71
2023-05-10T09:50:28.260Z,18.68
2023-05-10T09:51:30.169Z,18.53
2023-05-10T09:52:46.291Z,18.54
2023-05-10T09:53:47.872Z,18.70
2023-05-10T09:54:55.787Z,18.76
2023-05-10T09:55:57.202Z,18.85
2023-05-10T09:56:58.818Z,18.90
2023-05-10T09:58:02.275Z,19.09
2023-05-10T09:59:04.767Z,19.06
2023-05-10T10:00:07.061Z,19.12
2023-05-10T10:01:13.126Z,19.23
2023-05-10T10:02:14.772Z,19.28
2023-05-10T10:03:18.364Z,19.31
2023-05-10T10:04:22.002Z,19.35
2023-05-10T10:05:33.538Z,19.52
2023-05-10T10:06:41.353Z,19.47
2023-05-10T10:07:42.982Z,19.61
2023-05-10T10:08:44.447Z,19.55
2023-05-10T10:09:46.409Z,19.58
2023-05-10T10:10:48.138Z,19.61
2023-05-10T10:11:49.637Z,19.24
2023-05-10T10:12:51.340Z,19.30
2023-05-10T10:13:52.897Z,19.20
2023-05-10T10:14:54.549Z,19.18
2023-05-10T10:15:56.285Z,19.22
2023-05-10T10:17:07.478Z,19.23
2023-05-10T10:18:15.463Z,19.45
2023-05-10T10:19:17.090Z,19.56
2023-05-10T10:20:20.080Z,19.72
2023-05-10T10:21:22.738Z,19.73
2023-05-10T10:22:24.174Z,19.85
2023-05-10T10:23:25.945Z,19.85
2023-05-10T10:24:27.354Z,19.86
2023-05-10T10:25:29.189Z,19.77
2023-05-10T10:26:31.405Z,19.94
2023-05-10T10:27:51.086Z,19.85
2023-05-10T10:28:55.500Z,19.99
2023-05-10T10:30:19.534Z,20.14
2023-05-10T10:31:30.202Z,20.33
2023-05-10T10:32:56.613Z,20.55
2023-05-10T10:34:04.625Z,20.71
2023-05-10T10:35:07.607Z,20.72
2023-05-10T10:36:09.285Z,20.65
2023-05-10T10:37:10.763Z,20.79
2023-05-10T10:38:13.988Z,20.96
2023-05-10T10:39:16.877Z,20.82
2023-05-10T10:40:28.617Z,20.78
2023-05-10T10:41:35.533Z,20.76
2023-05-10T10:42:51.030Z,20.87
2023-05-10T10:44:31.742Z,20.85
2023-05-10T10:45:33.230Z,20.92
2023-05-10T10:46:35.436Z,21.08
2023-05-10T10:47:38.300Z,21.09
2023-05-10T10:48:40.030Z,21.14
2023-05-10T10:49:44.121Z,21.31
2023-05-10T10:50:47.126Z,21.46
2023-05-10T10:52:19.259Z,21.53
2023-05-10T10:53:20.733Z,21.29
2023-05-10T10:54:29.136Z,21.25
2023-05-10T10:55:31.301Z,21.35
2023-05-10T10:56:33.176Z,21.61
2023-05-10T10:57:41.344Z,21.89
2023-05-10T10:58:54.457Z,22.05
2023-05-10T11:00:21.186Z,22.11
2023-05-10T11:01:22.729Z,22.17
2023-05-10T11:02:35.713Z,22.31
2023-05-10T11:03:37.280Z,22.61
2023-05-10T11:04:47.777Z,22.54
2023-05-10T11:05:50.289Z,22.68
2023-05-10T11:06:51.732Z,22.78
2023-05-10T11:07:57.257Z,23.07
2023-05-10T11:08:58.808Z,22.92
2023-05-10T11:10:06.157Z,23.00
2023-05-10T11:11:08.397Z,22.36
2023-05-10T11:12:10.230Z,22.35
2023-05-10T11:13:11.647Z,22.38
2023-05-10T11:14:13.179Z,22.35
2023-05-10T11:15:14.838Z,22.71
2023-05-10T11:16:24.793Z,23.02
2023-05-10T11:17:28.753Z,23.21
2023-05-10T11:18:31.541Z,23.45
2023-05-10T11:19:35.251Z,23.56
2023-05-10T11:20:40.506Z,23.53
2023-05-10T11:22:06.807Z,23.62
2023-05-10T11:23:16.788Z,24.02
2023-05-10T11:24:24.018Z,23.61
2023-05-10T11:25:29.058Z,23.93
2023-05-10T11:26:35.635Z,23.71
2023-05-10T11:27:38.788Z,23.91
2023-05-10T11:28:48.148Z,23.94
2023-05-10T11:29:52.937Z,24.13
2023-05-10T11:30:55.495Z,24.19
2023-05-10T11:32:00.947Z,24.15
2023-05-10T11:33:02.522Z,24.01
2023-05-10T11:34:04.056Z,23.98
2023-05-10T11:35:10.363Z,23.89
2023-05-10T11:36:15.992Z,23.85
2023-05-10T11:37:19.227Z,24.13
2023-05-10T11:38:20.900Z,24.06
2023-05-10T11:39:26.370Z,23.93
2023-05-10T11:40:28.070Z,24.03
2023-05-10T11:41:30.171Z,24.26
2023-05-10T11:42:31.606Z,24.27
2023-05-10T11:43:33.071Z,24.07
2023-05-10T11:44:34.672Z,24.33
2023-05-10T11:45:36.322Z,24.05
2023-05-10T11:46:37.822Z,23.94
2023-05-10T11:47:42.047Z,24.31
2023-05-10T11:48:44.449Z,24.46
2023-05-10T11:49:46.242Z,24.49
2023-05-10T11:50:47.713Z,24.47
2023-05-10T11:51:49.322Z,24.75
2023-05-10T11:52:58.092Z,24.63
2023-05-10T11:53:59.495Z,24.58
2023-05-10T11:55:01.108Z,24.75
2023-05-10T11:56:10.367Z,24.74
2023-05-10T11:57:11.893Z,24.74
2023-05-10T11:58:13.338Z,24.97
2023-05-10T11:59:15.688Z,24.84
2023-05-10T12:00:17.561Z,24.88
2023-05-10T12:01:19.228Z,24.89
2023-05-10T12:02:20.852Z,25.22
2023-05-10T12:03:22.413Z,25.16
2023-05-10T12:04:24.059Z,25.11
2023-05-10T12:05:25.782Z,24.97
2023-05-10T12:06:27.791Z,25.07
2023-05-10T12:07:29.275Z,25.38
2023-05-10T12:08:31.853Z,25.42
2023-05-10T12:09:43.105Z,25.17
2023-05-10T12:10:45.612Z,25.40
2023-05-10T12:11:47.223Z,25.53
2023-05-10T12:12:50.326Z,25.39
2023-05-10T12:13:52.571Z,25.62
2023-05-10T12:14:53.979Z,25.58
2023-05-10T12:15:58.805Z,25.37
2023-05-10T12:17:00.332Z,25.66
2023-05-10T12:18:02.284Z,25.79
2023-05-10T12:19:03.934Z,25.88
2023-05-10T12:20:34.808Z,25.73
2023-05-10T12:21:36.425Z,25.20
2023-05-10T12:22:38.192Z,25.40
2023-05-10T12:23:40.698Z,25.41
2023-05-10T12:24:42.207Z,25.34
2023-05-10T12:25:44.194Z,25.38
2023-05-10T12:26:49.362Z,25.50
2023-05-10T12:27:58.198Z,25.31
2023-05-10T12:29:19.343Z,25.14
2023-05-10T12:30:28.209Z,24.87
2023-05-10T12:31:29.638Z,25.01
2023-05-10T12:32:44.844Z,25.07
2023-05-10T12:33:47.300Z,25.26
2023-05-10T12:34:49.056Z,25.15
2023-05-10T12:35:52.124Z,25.26
2023-05-10T12:36:54.681Z,25.13
2023-05-10T12:37:56.088Z,25.28
2023-05-10T12:39:04.065Z,25.20
2023-05-10T12:40:12.089Z,24.84
2023-05-10T12:41:18.793Z,25.00
2023-05-10T12:42:20.317Z,25.14
2023-05-10T12:43:21.749Z,25.18
2023-05-10T12:44:23.194Z,25.61
2023-05-10T12:45:24.761Z,25.56
2023-05-10T12:46:28.641Z,25.42
2023-05-10T12:47:30.802Z,25.67
2023-05-10T12:48:32.628Z,25.68
2023-05-10T12:49:34.846Z,25.53
2023-05-10T12:50:36.476Z,25.81
2023-05-10T12:51:37.925Z,25.94
2023-05-10T12:52:39.333Z,25.67
2023-05-10T12:53:43.479Z,25.74
2023-05-10T12:54:46.989Z,25.88
2023-05-10T12:55:48.464Z,25.66
2023-05-10T12:56:49.877Z,25.78
2023-05-10T12:57:51.283Z,25.72
2023-05-10T12:58:52.691Z,25.85
2023-05-10T12:59:54.537Z,25.92
2023-05-10T13:00:57.360Z,25.94
2023-05-10T13:01:59.092Z,25.98
2023-05-10T13:03:00.537Z,25.91
2023-05-10T13:04:02.087Z,26.07
2023-05-10T13:05:03.805Z,25.87
2023-05-10T13:06:05.994Z,26.06
2023-05-10T13:07:08.052Z,25.42
2023-05-10T13:08:09.469Z,25.58
2023-05-10T13:09:11.138Z,25.62
2023-05-10T13:10:12.472Z,25.60
2023-05-10T13:11:17.495Z,25.63
2023-05-10T13:12:19.002Z,25.81
2023-05-10T13:13:20.445Z,25.69
2023-05-10T13:14:22.031Z,25.90
2023-05-10T13:15:23.832Z,25.89
2023-05-10T13:16:25.288Z,25.95
2023-05-10T13:17:26.797Z,26.26
2023-05-10T13:18:28.319Z,26.24
2023-05-10T13:19:29.824Z,26.31
2023-05-10T13:20:31.446Z,26.10
2023-05-10T13:21:32.880Z,25.97
2023-05-10T13:22:40.205Z,25.66
2023-05-10T13:23:42.217Z,25.80
2023-05-10T13:24:43.850Z,25.61
2023-05-10T13:25:45.262Z,25.81
2023-05-10T13:26:46.733Z,26.01
2023-05-10T13:27:48.173Z,25.93
2023-05-10T13:28:50.614Z,25.83
2023-05-10T13:29:52.048Z,26.10
2023-05-10T13:30:53.436Z,26.11
2023-05-10T13:31:55.039Z,26.34
2023-05-10T13:32:56.480Z,26.32
2023-05-10T13:33:57.921Z,26.07
2023-05-10T13:34:59.324Z,26.23
2023-05-10T13:36:00.930Z,26.28
2023-05-10T13:37:02.724Z,26.09
2023-05-10T13:38:04.225Z,26.13
2023-05-10T13:39:06.288Z,26.19
2023-05-10T13:40:08.562Z,26.22
2023-05-10T13:41:10.121Z,26.33
2023-05-10T13:42:11.535Z,26.55
2023-05-10T13:43:12.993Z,26.48
2023-05-10T13:44:15.571Z,26.11
2023-05-10T13:45:17.190Z,26.15
2023-05-10T13:46:18.861Z,26.02
2023-05-10T13:47:22.497Z,26.05